sensor_id;sensor_type;location;lat;lon;timestamp;P1;durP1;ratioP1;P2;durP2;ratioP2
43823;SDS011;29470;53.550;9.926;2022-12-18T00:05:01;26.98;;;12.07;;
43823;SDS011;29470;53.550;9.926;2022-12-18T00:10:04;21.23;;;11.10;;
43823;SDS011;29470;53.550;9.926;2022-12-18T00:15:08;24.70;;;11.13;;
43823;SDS011;29470;53.550;9.926;2022-12-18T00:20:12;26.35;;;11.93;;
43823;SDS011;29470;53.550;9.926;2022-12-18T00:25:15;19.88;;;10.98;;
43823;SDS011;29470;53.550;9.926;2022-12-18T00:30:18;23.30;;;11.25;;
43823;SDS011;29470;53.550;9.926;2022-12-18T00:35:23;23.85;;;10.75;;
43823;SDS011;29470;53.550;9.926;2022-12-18T00:40:26;23.13;;;10.65;;
43823;SDS011;29470;53.550;9.926;2022-12-18T00:45:30;23.02;;;10.80;;
43823;SDS011;29470;53.550;9.926;2022-12-18T00:50:35;25.67;;;11.75;;
43823;SDS011;29470;53.550;9.926;2022-12-18T00:55:38;25.75;;;12.02;;
43823;SDS011;29470;53.550;9.926;2022-12-18T01:00:42;24.88;;;10.82;;
43823;SDS011;29470;53.550;9.926;2022-12-18T01:05:47;23.38;;;11.07;;
43823;SDS011;29470;53.550;9.926;2022-12-18T01:10:52;24.17;;;10.60;;
43823;SDS011;29470;53.550;9.926;2022-12-18T01:15:58;24.33;;;11.02;;
43823;SDS011;29470;53.550;9.926;2022-12-18T01:21:06;22.67;;;10.13;;
43823;SDS011;29470;53.550;9.926;2022-12-18T01:26:12;21.95;;;11.48;;
43823;SDS011;29470;53.550;9.926;2022-12-18T01:31:18;20.25;;;9.95;;
43823;SDS011;29470;53.550;9.926;2022-12-18T01:36:24;23.75;;;11.10;;
43823;SDS011;29470;53.550;9.926;2022-12-18T01:41:29;22.35;;;10.55;;
43823;SDS011;29470;53.550;9.926;2022-12-18T01:46:54;22.58;;;10.40;;
43823;SDS011;29470;53.550;9.926;2022-12-18T01:51:58;21.67;;;10.60;;
43823;SDS011;29470;53.550;9.926;2022-12-18T01:57:01;26.63;;;10.88;;
43823;SDS011;29470;53.550;9.926;2022-12-18T02:02:04;21.38;;;9.90;;
43823;SDS011;29470;53.550;9.926;2022-12-18T02:07:11;19.75;;;9.57;;
43823;SDS011;29470;53.550;9.926;2022-12-18T02:12:27;20.75;;;9.85;;
43823;SDS011;29470;53.550;9.926;2022-12-18T02:17:36;21.67;;;10.05;;
43823;SDS011;29470;53.550;9.926;2022-12-18T02:22:49;23.23;;;9.95;;
43823;SDS011;29470;53.550;9.926;2022-12-18T02:28:05;19.27;;;8.95;;
43823;SDS011;29470;53.550;9.926;2022-12-18T02:33:12;21.30;;;9.73;;
43823;SDS011;29470;53.550;9.926;2022-12-18T02:38:17;18.05;;;9.65;;
43823;SDS011;29470;53.550;9.926;2022-12-18T02:43:24;20.42;;;9.48;;
43823;SDS011;29470;53.550;9.926;2022-12-18T02:48:30;18.80;;;9.50;;
43823;SDS011;29470;53.550;9.926;2022-12-18T02:53:36;22.50;;;9.95;;
43823;SDS011;29470;53.550;9.926;2022-12-18T02:58:47;23.90;;;9.77;;
43823;SDS011;29470;53.550;9.926;2022-12-18T03:04:07;21.10;;;9.40;;
43823;SDS011;29470;53.550;9.926;2022-12-18T03:09:17;21.95;;;10.20;;
43823;SDS011;29470;53.550;9.926;2022-12-18T03:14:26;18.10;;;9.50;;
43823;SDS011;29470;53.550;9.926;2022-12-18T03:19:32;19.58;;;9.38;;
43823;SDS011;29470;53.550;9.926;2022-12-18T03:24:37;16.58;;;9.57;;
43823;SDS011;29470;53.550;9.926;2022-12-18T03:29:45;18.17;;;9.35;;
43823;SDS011;29470;53.550;9.926;2022-12-18T03:34:58;24.77;;;10.75;;
43823;SDS011;29470;53.550;9.926;2022-12-18T03:40:09;22.92;;;9.25;;
43823;SDS011;29470;53.550;9.926;2022-12-18T03:45:16;21.27;;;9.57;;
43823;SDS011;29470;53.550;9.926;2022-12-18T03:50:26;16.17;;;8.48;;
43823;SDS011;29470;53.550;9.926;2022-12-18T03:55:39;21.75;;;8.85;;
43823;SDS011;29470;53.550;9.926;2022-12-18T04:00:46;16.98;;;8.27;;
43823;SDS011;29470;53.550;9.926;2022-12-18T04:05:51;19.15;;;9.25;;
43823;SDS011;29470;53.550;9.926;2022-12-18T04:10:57;17.15;;;8.25;;
43823;SDS011;29470;53.550;9.926;2022-12-18T04:16:02;21.35;;;9.80;;
43823;SDS011;29470;53.550;9.926;2022-12-18T04:21:06;18.75;;;9.20;;
43823;SDS011;29470;53.550;9.926;2022-12-18T04:26:10;18.50;;;8.13;;
43823;SDS011;29470;53.550;9.926;2022-12-18T04:31:24;16.15;;;7.50;;
43823;SDS011;29470;53.550;9.926;2022-12-18T04:36:27;20.35;;;8.63;;
43823;SDS011;29470;53.550;9.926;2022-12-18T04:41:30;18.50;;;8.90;;
43823;SDS011;29470;53.550;9.926;2022-12-18T04:46:35;15.70;;;8.25;;
43823;SDS011;29470;53.550;9.926;2022-12-18T04:51:38;17.58;;;8.88;;
43823;SDS011;29470;53.550;9.926;2022-12-18T04:56:41;19.58;;;8.10;;
43823;SDS011;29470;53.550;9.926;2022-12-18T05:01:45;22.40;;;8.95;;
43823;SDS011;29470;53.550;9.926;2022-12-18T05:06:48;21.23;;;9.27;;
43823;SDS011;29470;53.550;9.926;2022-12-18T05:11:51;21.27;;;9.43;;
43823;SDS011;29470;53.550;9.926;2022-12-18T05:16:56;17.63;;;8.65;;
43823;SDS011;29470;53.550;9.926;2022-12-18T05:22:02;20.65;;;10.88;;
43823;SDS011;29470;53.550;9.926;2022-12-18T05:27:08;22.55;;;10.60;;
43823;SDS011;29470;53.550;9.926;2022-12-18T05:32:12;19.83;;;10.73;;
43823;SDS011;29470;53.550;9.926;2022-12-18T05:37:15;19.17;;;10.00;;
43823;SDS011;29470;53.550;9.926;2022-12-18T05:42:19;17.63;;;9.55;;
43823;SDS011;29470;53.550;9.926;2022-12-18T05:47:23;18.83;;;9.13;;
43823;SDS011;29470;53.550;9.926;2022-12-18T05:52:27;17.27;;;8.82;;
43823;SDS011;29470;53.550;9.926;2022-12-18T05:57:30;16.77;;;8.73;;
43823;SDS011;29470;53.550;9.926;2022-12-18T06:02:35;18.88;;;8.55;;
43823;SDS011;29470;53.550;9.926;2022-12-18T06:07:38;25.52;;;9.52;;
43823;SDS011;29470;53.550;9.926;2022-12-18T06:12:41;20.45;;;9.48;;
43823;SDS011;29470;53.550;9.926;2022-12-18T06:17:45;18.20;;;9.20;;
43823;SDS011;29470;53.550;9.926;2022-12-18T06:22:48;19.75;;;9.85;;
43823;SDS011;29470;53.550;9.926;2022-12-18T06:27:50;16.60;;;8.50;;
43823;SDS011;29470;53.550;9.926;2022-12-18T06:32:55;18.80;;;8.75;;
43823;SDS011;29470;53.550;9.926;2022-12-18T06:37:57;20.80;;;8.68;;
43823;SDS011;29470;53.550;9.926;2022-12-18T06:43:00;17.27;;;8.57;;
43823;SDS011;29470;53.550;9.926;2022-12-18T06:48:04;16.73;;;8.23;;
43823;SDS011;29470;53.550;9.926;2022-12-18T06:53:07;17.95;;;8.70;;
43823;SDS011;29470;53.550;9.926;2022-12-18T06:58:10;20.40;;;8.73;;
43823;SDS011;29470;53.550;9.926;2022-12-18T07:03:14;16.75;;;8.38;;
43823;SDS011;29470;53.550;9.926;2022-12-18T07:08:17;21.55;;;8.93;;
43823;SDS011;29470;53.550;9.926;2022-12-18T07:13:20;17.23;;;9.20;;
43823;SDS011;29470;53.550;9.926;2022-12-18T07:18:24;18.83;;;8.80;;
43823;SDS011;29470;53.550;9.926;2022-12-18T07:23:27;21.52;;;8.77;;
43823;SDS011;29470;53.550;9.926;2022-12-18T07:28:30;18.85;;;8.35;;
43823;SDS011;29470;53.550;9.926;2022-12-18T07:33:35;18.70;;;8.73;;
43823;SDS011;29470;53.550;9.926;2022-12-18T07:38:39;18.75;;;9.25;;
43823;SDS011;29470;53.550;9.926;2022-12-18T07:43:42;18.15;;;8.43;;
43823;SDS011;29470;53.550;9.926;2022-12-18T07:48:46;18.35;;;9.25;;
43823;SDS011;29470;53.550;9.926;2022-12-18T07:53:51;19.35;;;8.20;;
43823;SDS011;29470;53.550;9.926;2022-12-18T07:58:54;16.80;;;8.85;;
43823;SDS011;29470;53.550;9.926;2022-12-18T08:03:58;16.35;;;8.20;;
43823;SDS011;29470;53.550;9.926;2022-12-18T08:09:04;20.15;;;9.02;;
43823;SDS011;29470;53.550;9.926;2022-12-18T08:14:27;17.55;;;9.50;;
43823;SDS011;29470;53.550;9.926;2022-12-18T08:19:33;20.92;;;9.10;;
43823;SDS011;29470;53.550;9.926;2022-12-18T08:24:36;16.63;;;8.45;;
43823;SDS011;29470;53.550;9.926;2022-12-18T08:29:39;16.95;;;9.40;;
43823;SDS011;29470;53.550;9.926;2022-12-18T08:34:43;15.75;;;7.82;;
43823;SDS011;29470;53.550;9.926;2022-12-18T08:39:46;17.33;;;8.38;;
43823;SDS011;29470;53.550;9.926;2022-12-18T08:44:49;15.88;;;8.20;;
43823;SDS011;29470;53.550;9.926;2022-12-18T08:49:53;16.35;;;8.70;;
43823;SDS011;29470;53.550;9.926;2022-12-18T08:54:56;17.88;;;8.60;;
43823;SDS011;29470;53.550;9.926;2022-12-18T08:59:59;21.02;;;9.13;;
43823;SDS011;29470;53.550;9.926;2022-12-18T09:05:04;16.48;;;7.40;;
43823;SDS011;29470;53.550;9.926;2022-12-18T09:10:07;15.60;;;8.30;;
43823;SDS011;29470;53.550;9.926;2022-12-18T09:15:11;18.17;;;7.95;;
43823;SDS011;29470;53.550;9.926;2022-12-18T09:20:16;17.92;;;8.35;;
43823;SDS011;29470;53.550;9.926;2022-12-18T09:25:19;18.13;;;8.60;;
43823;SDS011;29470;53.550;9.926;2022-12-18T09:30:23;19.83;;;8.43;;
43823;SDS011;29470;53.550;9.926;2022-12-18T09:35:28;15.93;;;8.15;;
43823;SDS011;29470;53.550;9.926;2022-12-18T09:40:34;22.20;;;8.32;;
43823;SDS011;29470;53.550;9.926;2022-12-18T09:45:43;16.50;;;7.60;;
43823;SDS011;29470;53.550;9.926;2022-12-18T09:50:51;14.60;;;8.20;;
43823;SDS011;29470;53.550;9.926;2022-12-18T09:55:58;15.73;;;8.07;;
43823;SDS011;29470;53.550;9.926;2022-12-18T10:01:06;18.10;;;9.13;;
43823;SDS011;29470;53.550;9.926;2022-12-18T10:11:21;18.45;;;8.27;;
43823;SDS011;29470;53.550;9.926;2022-12-18T10:16:36;15.30;;;7.35;;
43823;SDS011;29470;53.550;9.926;2022-12-18T10:21:54;15.55;;;7.55;;
43823;SDS011;29470;53.550;9.926;2022-12-18T10:27:08;17.83;;;8.38;;
43823;SDS011;29470;53.550;9.926;2022-12-18T10:32:16;16.13;;;8.00;;
43823;SDS011;29470;53.550;9.926;2022-12-18T10:37:23;14.70;;;7.97;;
43823;SDS011;29470;53.550;9.926;2022-12-18T10:42:27;17.35;;;8.73;;
43823;SDS011;29470;53.550;9.926;2022-12-18T10:47:30;18.05;;;8.55;;
43823;SDS011;29470;53.550;9.926;2022-12-18T10:52:37;22.45;;;9.13;;
43823;SDS011;29470;53.550;9.926;2022-12-18T10:57:48;18.25;;;8.90;;
43823;SDS011;29470;53.550;9.926;2022-12-18T11:02:52;18.05;;;8.70;;
43823;SDS011;29470;53.550;9.926;2022-12-18T11:07:59;15.85;;;8.95;;
43823;SDS011;29470;53.550;9.926;2022-12-18T11:13:12;22.70;;;10.63;;
43823;SDS011;29470;53.550;9.926;2022-12-18T11:18:22;22.77;;;9.73;;
43823;SDS011;29470;53.550;9.926;2022-12-18T11:23:30;18.35;;;9.73;;
43823;SDS011;29470;53.550;9.926;2022-12-18T11:28:34;19.30;;;9.80;;
43823;SDS011;29470;53.550;9.926;2022-12-18T11:33:40;21.67;;;10.35;;
43823;SDS011;29470;53.550;9.926;2022-12-18T11:39:10;22.00;;;10.13;;
43823;SDS011;29470;53.550;9.926;2022-12-18T11:44:19;19.27;;;10.05;;
43823;SDS011;29470;53.550;9.926;2022-12-18T11:49:28;18.25;;;9.93;;
43823;SDS011;29470;53.550;9.926;2022-12-18T11:54:37;20.20;;;10.13;;
43823;SDS011;29470;53.550;9.926;2022-12-18T11:59:41;21.13;;;10.15;;
43823;SDS011;29470;53.550;9.926;2022-12-18T12:05:02;22.77;;;11.48;;
43823;SDS011;29470;53.550;9.926;2022-12-18T12:10:23;20.33;;;10.02;;
43823;SDS011;29470;53.550;9.926;2022-12-18T12:15:39;22.80;;;10.23;;
43823;SDS011;29470;53.550;9.926;2022-12-18T12:20:53;22.38;;;9.77;;
43823;SDS011;29470;53.550;9.926;2022-12-18T12:26:06;21.80;;;10.95;;
43823;SDS011;29470;53.550;9.926;2022-12-18T12:31:11;20.77;;;9.73;;
43823;SDS011;29470;53.550;9.926;2022-12-18T12:36:25;25.73;;;11.98;;
43823;SDS011;29470;53.550;9.926;2022-12-18T12:41:39;19.05;;;9.82;;
43823;SDS011;29470;53.550;9.926;2022-12-18T12:47:04;20.60;;;9.32;;
43823;SDS011;29470;53.550;9.926;2022-12-18T12:52:16;18.20;;;8.77;;
43823;SDS011;29470;53.550;9.926;2022-12-18T12:57:30;22.50;;;9.35;;
43823;SDS011;29470;53.550;9.926;2022-12-18T13:02:37;19.10;;;9.45;;
43823;SDS011;29470;53.550;9.926;2022-12-18T13:07:46;20.70;;;9.38;;
43823;SDS011;29470;53.550;9.926;2022-12-18T13:12:58;24.25;;;9.32;;
43823;SDS011;29470;53.550;9.926;2022-12-18T13:18:03;22.42;;;10.65;;
43823;SDS011;29470;53.550;9.926;2022-12-18T13:23:26;25.67;;;11.15;;
43823;SDS011;29470;53.550;9.926;2022-12-18T13:28:51;25.83;;;11.35;;
43823;SDS011;29470;53.550;9.926;2022-12-18T13:33:59;27.23;;;10.48;;
43823;SDS011;29470;53.550;9.926;2022-12-18T13:39:31;26.35;;;11.60;;
43823;SDS011;29470;53.550;9.926;2022-12-18T13:44:39;28.00;;;12.35;;
43823;SDS011;29470;53.550;9.926;2022-12-18T13:49:43;28.55;;;11.45;;
43823;SDS011;29470;53.550;9.926;2022-12-18T13:54:48;25.38;;;11.48;;
43823;SDS011;29470;53.550;9.926;2022-12-18T13:59:56;27.23;;;11.48;;
43823;SDS011;29470;53.550;9.926;2022-12-18T14:04:59;28.42;;;12.25;;
43823;SDS011;29470;53.550;9.926;2022-12-18T14:10:03;31.38;;;12.10;;
43823;SDS011;29470;53.550;9.926;2022-12-18T14:15:30;30.90;;;12.38;;
43823;SDS011;29470;53.550;9.926;2022-12-18T14:20:35;28.58;;;11.60;;
43823;SDS011;29470;53.550;9.926;2022-12-18T14:25:45;30.50;;;12.48;;
43823;SDS011;29470;53.550;9.926;2022-12-18T14:30:50;31.52;;;12.20;;
43823;SDS011;29470;53.550;9.926;2022-12-18T14:35:54;32.47;;;12.73;;
43823;SDS011;29470;53.550;9.926;2022-12-18T14:41:00;32.30;;;12.75;;
43823;SDS011;29470;53.550;9.926;2022-12-18T14:46:06;34.55;;;12.73;;
43823;SDS011;29470;53.550;9.926;2022-12-18T14:51:28;35.55;;;13.32;;
43823;SDS011;29470;53.550;9.926;2022-12-18T14:56:34;28.90;;;12.10;;
43823;SDS011;29470;53.550;9.926;2022-12-18T15:01:45;28.20;;;10.95;;
43823;SDS011;29470;53.550;9.926;2022-12-18T15:06:50;33.65;;;13.35;;
43823;SDS011;29470;53.550;9.926;2022-12-18T15:12:15;33.58;;;13.52;;
43823;SDS011;29470;53.550;9.926;2022-12-18T15:17:28;34.42;;;13.98;;
43823;SDS011;29470;53.550;9.926;2022-12-18T15:22:32;41.72;;;14.52;;
43823;SDS011;29470;53.550;9.926;2022-12-18T15:27:38;37.67;;;14.70;;
43823;SDS011;29470;53.550;9.926;2022-12-18T15:32:42;35.10;;;14.13;;
43823;SDS011;29470;53.550;9.926;2022-12-18T15:37:46;35.97;;;13.55;;
43823;SDS011;29470;53.550;9.926;2022-12-18T15:42:50;41.25;;;15.27;;
43823;SDS011;29470;53.550;9.926;2022-12-18T15:48:17;38.92;;;15.25;;
43823;SDS011;29470;53.550;9.926;2022-12-18T15:53:23;35.28;;;15.02;;
43823;SDS011;29470;53.550;9.926;2022-12-18T15:58:27;35.15;;;14.73;;
43823;SDS011;29470;53.550;9.926;2022-12-18T16:03:31;34.72;;;13.43;;
43823;SDS011;29470;53.550;9.926;2022-12-18T16:08:34;41.05;;;14.45;;
43823;SDS011;29470;53.550;9.926;2022-12-18T16:13:39;38.42;;;13.27;;
43823;SDS011;29470;53.550;9.926;2022-12-18T16:18:44;33.70;;;12.80;;
43823;SDS011;29470;53.550;9.926;2022-12-18T16:23:47;33.45;;;12.55;;
43823;SDS011;29470;53.550;9.926;2022-12-18T16:28:50;35.38;;;13.55;;
43823;SDS011;29470;53.550;9.926;2022-12-18T16:39:22;33.05;;;12.75;;
43823;SDS011;29470;53.550;9.926;2022-12-18T16:44:26;36.72;;;13.20;;
43823;SDS011;29470;53.550;9.926;2022-12-18T16:49:29;32.55;;;12.73;;
43823;SDS011;29470;53.550;9.926;2022-12-18T16:54:33;30.40;;;12.63;;
43823;SDS011;29470;53.550;9.926;2022-12-18T16:59:37;31.35;;;12.15;;
43823;SDS011;29470;53.550;9.926;2022-12-18T17:04:40;34.72;;;13.35;;
43823;SDS011;29470;53.550;9.926;2022-12-18T17:09:44;34.00;;;12.63;;
43823;SDS011;29470;53.550;9.926;2022-12-18T17:14:47;31.15;;;12.43;;
43823;SDS011;29470;53.550;9.926;2022-12-18T17:19:51;31.17;;;11.93;;
43823;SDS011;29470;53.550;9.926;2022-12-18T17:24:55;33.88;;;13.25;;
43823;SDS011;29470;53.550;9.926;2022-12-18T17:29:58;37.00;;;13.82;;
43823;SDS011;29470;53.550;9.926;2022-12-18T17:35:01;34.17;;;12.90;;
43823;SDS011;29470;53.550;9.926;2022-12-18T17:40:10;32.40;;;11.95;;
43823;SDS011;29470;53.550;9.926;2022-12-18T17:45:13;25.75;;;11.27;;
43823;SDS011;29470;53.550;9.926;2022-12-18T17:50:16;28.05;;;12.25;;
43823;SDS011;29470;53.550;9.926;2022-12-18T17:55:20;28.13;;;11.60;;
43823;SDS011;29470;53.550;9.926;2022-12-18T18:00:23;33.10;;;13.32;;
43823;SDS011;29470;53.550;9.926;2022-12-18T18:05:26;30.17;;;12.10;;
43823;SDS011;29470;53.550;9.926;2022-12-18T18:10:30;33.33;;;12.27;;
43823;SDS011;29470;53.550;9.926;2022-12-18T18:15:38;29.17;;;13.40;;
43823;SDS011;29470;53.550;9.926;2022-12-18T18:20:41;28.77;;;12.75;;
43823;SDS011;29470;53.550;9.926;2022-12-18T18:25:45;26.05;;;10.15;;
43823;SDS011;29470;53.550;9.926;2022-12-18T18:30:50;26.17;;;11.80;;
43823;SDS011;29470;53.550;9.926;2022-12-18T18:35:52;24.65;;;10.68;;
43823;SDS011;29470;53.550;9.926;2022-12-18T18:41:00;24.65;;;10.27;;
43823;SDS011;29470;53.550;9.926;2022-12-18T18:46:04;24.38;;;10.45;;
43823;SDS011;29470;53.550;9.926;2022-12-18T18:51:08;25.50;;;10.75;;
43823;SDS011;29470;53.550;9.926;2022-12-18T18:56:23;18.30;;;9.65;;
43823;SDS011;29470;53.550;9.926;2022-12-18T19:01:47;20.48;;;9.70;;
43823;SDS011;29470;53.550;9.926;2022-12-18T19:06:52;20.17;;;9.40;;
43823;SDS011;29470;53.550;9.926;2022-12-18T19:11:57;18.90;;;8.82;;
43823;SDS011;29470;53.550;9.926;2022-12-18T19:17:17;21.67;;;9.50;;
43823;SDS011;29470;53.550;9.926;2022-12-18T19:22:28;20.75;;;9.10;;
43823;SDS011;29470;53.550;9.926;2022-12-18T19:27:32;20.98;;;9.60;;
43823;SDS011;29470;53.550;9.926;2022-12-18T19:32:39;26.52;;;10.27;;
43823;SDS011;29470;53.550;9.926;2022-12-18T19:37:42;24.88;;;9.88;;
43823;SDS011;29470;53.550;9.926;2022-12-18T19:42:46;20.02;;;10.77;;
43823;SDS011;29470;53.550;9.926;2022-12-18T19:47:49;18.48;;;8.63;;
43823;SDS011;29470;53.550;9.926;2022-12-18T19:52:52;20.95;;;9.27;;
43823;SDS011;29470;53.550;9.926;2022-12-18T19:57:57;21.25;;;8.68;;
43823;SDS011;29470;53.550;9.926;2022-12-18T20:03:00;22.42;;;11.27;;
43823;SDS011;29470;53.550;9.926;2022-12-18T20:08:18;22.08;;;9.70;;
43823;SDS011;29470;53.550;9.926;2022-12-18T20:13:22;21.90;;;9.70;;
43823;SDS011;29470;53.550;9.926;2022-12-18T20:18:27;24.48;;;10.63;;
43823;SDS011;29470;53.550;9.926;2022-12-18T20:23:31;23.30;;;9.20;;
43823;SDS011;29470;53.550;9.926;2022-12-18T20:28:38;22.98;;;9.07;;
43823;SDS011;29470;53.550;9.926;2022-12-18T20:33:41;24.73;;;9.88;;
43823;SDS011;29470;53.550;9.926;2022-12-18T20:38:49;24.87;;;13.23;;
43823;SDS011;29470;53.550;9.926;2022-12-18T20:43:59;35.47;;;14.30;;
43823;SDS011;29470;53.550;9.926;2022-12-18T20:49:06;23.98;;;9.68;;
43823;SDS011;29470;53.550;9.926;2022-12-18T20:54:09;24.35;;;10.77;;
43823;SDS011;29470;53.550;9.926;2022-12-18T20:59:20;25.35;;;9.10;;
43823;SDS011;29470;53.550;9.926;2022-12-18T21:04:25;23.88;;;8.88;;
43823;SDS011;29470;53.550;9.926;2022-12-18T21:09:29;29.83;;;11.20;;
43823;SDS011;29470;53.550;9.926;2022-12-18T21:14:40;26.45;;;11.13;;
43823;SDS011;29470;53.550;9.926;2022-12-18T21:19:43;25.35;;;10.73;;
43823;SDS011;29470;53.550;9.926;2022-12-18T21:24:46;24.73;;;11.02;;
43823;SDS011;29470;53.550;9.926;2022-12-18T21:29:50;26.83;;;11.02;;
43823;SDS011;29470;53.550;9.926;2022-12-18T21:34:53;23.42;;;10.32;;
43823;SDS011;29470;53.550;9.926;2022-12-18T21:40:02;31.60;;;11.30;;
43823;SDS011;29470;53.550;9.926;2022-12-18T21:45:08;25.02;;;11.75;;
43823;SDS011;29470;53.550;9.926;2022-12-18T21:50:12;25.95;;;10.15;;
43823;SDS011;29470;53.550;9.926;2022-12-18T21:55:15;28.70;;;11.45;;
43823;SDS011;29470;53.550;9.926;2022-12-18T22:00:20;28.13;;;10.65;;
43823;SDS011;29470;53.550;9.926;2022-12-18T22:05:23;27.75;;;10.77;;
43823;SDS011;29470;53.550;9.926;2022-12-18T22:10:26;22.73;;;10.07;;
43823;SDS011;29470;53.550;9.926;2022-12-18T22:15:30;25.98;;;10.85;;
43823;SDS011;29470;53.550;9.926;2022-12-18T22:20:33;24.08;;;10.85;;
43823;SDS011;29470;53.550;9.926;2022-12-18T22:25:36;26.48;;;10.70;;
43823;SDS011;29470;53.550;9.926;2022-12-18T22:30:41;26.65;;;11.70;;
43823;SDS011;29470;53.550;9.926;2022-12-18T22:35:44;28.67;;;11.82;;
43823;SDS011;29470;53.550;9.926;2022-12-18T22:40:48;26.38;;;10.98;;
43823;SDS011;29470;53.550;9.926;2022-12-18T22:45:52;30.45;;;12.60;;
43823;SDS011;29470;53.550;9.926;2022-12-18T22:50:55;27.83;;;12.48;;
43823;SDS011;29470;53.550;9.926;2022-12-18T22:56:00;29.13;;;11.70;;
43823;SDS011;29470;53.550;9.926;2022-12-18T23:01:04;27.15;;;12.48;;
43823;SDS011;29470;53.550;9.926;2022-12-18T23:06:10;29.70;;;12.13;;
43823;SDS011;29470;53.550;9.926;2022-12-18T23:11:13;26.30;;;12.43;;
43823;SDS011;29470;53.550;9.926;2022-12-18T23:16:20;27.92;;;11.30;;
43823;SDS011;29470;53.550;9.926;2022-12-18T23:21:23;30.05;;;11.73;;
43823;SDS011;29470;53.550;9.926;2022-12-18T23:26:27;32.33;;;12.18;;
43823;SDS011;29470;53.550;9.926;2022-12-18T23:31:32;24.60;;;11.50;;
43823;SDS011;29470;53.550;9.926;2022-12-18T23:36:37;30.55;;;12.38;;
43823;SDS011;29470;53.550;9.926;2022-12-18T23:41:47;28.45;;;12.45;;
43823;SDS011;29470;53.550;9.926;2022-12-18T23:46:55;29.20;;;11.70;;
43823;SDS011;29470;53.550;9.926;2022-12-18T23:52:03;31.10;;;12.85;;
43823;SDS011;29470;53.550;9.926;2022-12-18T23:57:06;31.52;;;12.63;;
